Time;durP1;ratioP1;P1;durP2;ratioP2;P2;SDS_P1;SDS_P2;PMS_P1;PMS_P2;Temp;Humidity;BMP_temperature;BMP_pressure;BME280_temperature;BME280_humidity;BME280_pressure;Samples;Min_cycle;Max_cycle;Signal;HPM_P1;HPM_P2
2023/11/03 00:02:23;;;;;;;4.73;2.70;;;;;;;22.17;63.63;94734.66;5013464;28;20206;-30
2023/11/03 00:04:52;;;;;;;2.90;2.60;;;;;;;22.16;63.43;94740.66;5013370;28;20285;-27
2023/11/03 00:07:19;;;;;;;4.67;3.03;;;;;;;22.17;63.49;94738.94;5020937;28;20222;-27
2023/11/03 00:09:46;;;;;;;3.83;2.70;;;;;;;22.16;63.32;94745.75;5012525;28;20191;-26
2023/11/03 00:12:13;;;;;;;2.67;2.47;;;;;;;22.16;63.40;94761.09;5018671;28;20677;-26
2023/11/03 00:14:40;;;;;;;3.73;2.53;;;;;;;22.16;63.52;94742.34;5015205;28;20216;-28
2023/11/03 00:17:06;;;;;;;3.37;2.63;;;;;;;22.16;63.62;94743.19;5012496;28;20280;-26
2023/11/03 00:19:33;;;;;;;3.60;2.67;;;;;;;22.16;63.58;94763.66;5012770;28;20226;-28
2023/11/03 00:22:00;;;;;;;2.57;2.37;;;;;;;22.16;62.99;94793.50;5014418;28;20203;-26
2023/11/03 00:24:27;;;;;;;3.20;2.60;;;;;;;22.16;63.28;94783.28;5017279;28;20205;-26
2023/11/03 00:26:54;;;;;;;3.10;2.50;;;;;;;22.16;63.40;94744.91;5012350;28;20257;-29
2023/11/03 00:29:22;;;;;;;3.67;2.73;;;;;;;22.16;63.33;94699.72;5007374;28;20198;-27
2023/11/03 00:31:49;;;;;;;3.43;2.77;;;;;;;22.15;63.28;94672.47;5013001;28;20198;-26
2023/11/03 00:34:16;;;;;;;2.97;2.47;;;;;;;22.16;63.72;94719.34;5015487;28;20626;-32
2023/11/03 00:36:45;;;;;;;3.67;2.70;;;;;;;22.17;63.69;94738.94;5012229;28;20286;-26
2023/11/03 00:39:12;;;;;;;3.20;2.47;;;;;;;22.17;63.56;94728.72;5015023;28;20202;-28
2023/11/03 00:41:42;;;;;;;4.47;2.90;;;;;;;22.16;63.62;94734.69;5019365;28;20237;-26
2023/11/03 00:44:09;;;;;;;5.67;2.67;;;;;;;22.16;63.49;94734.69;5019015;28;20296;-26
2023/11/03 00:46:35;;;;;;;3.20;2.70;;;;;;;22.17;63.38;94733.81;5017314;28;20202;-26
2023/11/03 00:49:02;;;;;;;3.17;2.73;;;;;;;22.15;63.59;94745.78;5016921;28;20213;-27
2023/11/03 00:51:29;;;;;;;3.30;2.40;;;;;;;22.16;63.46;94762.81;5012901;28;20198;-26
2023/11/03 00:53:56;;;;;;;2.70;2.43;;;;;;;22.15;63.46;94773.91;5012183;28;20194;-26
2023/11/03 00:56:23;;;;;;;3.53;2.70;;;;;;;22.17;63.51;94790.09;5015113;28;20202;-27
2023/11/03 00:58:49;;;;;;;3.80;2.80;;;;;;;22.16;63.55;94773.03;5022242;28;20688;-29
2023/11/03 01:01:16;;;;;;;3.17;2.30;;;;;;;22.13;63.27;94748.38;5012229;28;20250;-26
2023/11/03 01:03:44;;;;;;;3.77;2.70;;;;;;;22.08;63.48;94739.09;5014835;28;20626;-26
2023/11/03 01:06:11;;;;;;;2.50;2.30;;;;;;;22.14;63.51;94742.38;5011876;28;20220;-34
2023/11/03 01:08:37;;;;;;;2.80;2.60;;;;;;;22.14;63.40;94742.38;5018415;28;20708;-27
2023/11/03 01:11:07;;;;;;;3.10;2.23;;;;;;;22.14;63.52;94749.22;5016316;28;20233;-26
2023/11/03 01:13:34;;;;;;;3.50;2.50;;;;;;;22.16;63.46;94778.16;5011504;28;20723;-31
2023/11/03 01:16:00;;;;;;;2.73;2.50;;;;;;;22.17;63.64;94784.97;5013756;28;20214;-30
2023/11/03 01:18:28;;;;;;;3.07;2.53;;;;;;;22.16;63.48;94789.25;5011243;28;20252;-26
2023/11/03 01:20:57;;;;;;;3.13;2.50;;;;;;;22.16;63.53;94781.56;5010183;28;20214;-26
2023/11/03 01:23:24;;;;;;;3.03;2.53;;;;;;;22.16;63.55;94763.66;5011816;28;20277;-27
2023/11/03 01:25:54;;;;;;;3.53;2.50;;;;;;;22.15;63.53;94746.63;5014922;28;20233;-36
2023/11/03 01:28:22;;;;;;;3.07;2.50;;;;;;;22.17;63.68;94754.28;5004469;28;20218;-27
2023/11/03 01:30:48;;;;;;;2.83;2.30;;;;;;;22.16;63.46;94762.81;5012598;28;20190;-29
2023/11/03 01:33:15;;;;;;;2.30;2.10;;;;;;;22.15;63.41;94773.91;5017179;28;20202;-26
2023/11/03 01:35:41;;;;;;;3.37;2.67;;;;;;;22.15;63.64;94785.00;5014037;28;20673;-26
2023/11/03 01:38:08;;;;;;;3.43;2.40;;;;;;;22.15;63.53;94782.44;5013142;28;20276;-26
2023/11/03 01:40:35;;;;;;;2.73;2.13;;;;;;;22.08;63.65;94764.66;5013573;28;20581;-27
2023/11/03 01:43:01;;;;;;;2.90;2.20;;;;;;;22.14;63.49;94747.50;5014028;28;20302;-26
2023/11/03 01:45:28;;;;;;;3.00;2.47;;;;;;;22.05;63.29;94757.06;5018233;28;20576;-26
2023/11/03 01:47:55;;;;;;;3.00;2.40;;;;;;;22.14;63.38;94772.25;5011897;28;20276;-32
2023/11/03 01:50:23;;;;;;;3.07;2.40;;;;;;;22.14;63.47;94767.13;5013911;28;20200;-27
2023/11/03 01:52:50;;;;;;;3.03;2.50;;;;;;;22.14;63.55;94769.69;5000371;28;20261;-27
2023/11/03 01:55:16;;;;;;;2.23;1.97;;;;;;;22.16;63.61;94721.88;5019533;28;20212;-26
2023/11/03 01:57:43;;;;;;;3.07;2.27;;;;;;;22.16;63.72;94702.28;5019382;28;20221;-27
2023/11/03 02:00:13;;;;;;;2.53;2.33;;;;;;;22.16;63.54;94688.63;4995139;28;20218;-26
2023/11/03 02:02:40;;;;;;;2.53;2.33;;;;;;;22.07;63.40;94676.00;5018737;28;20230;-26
2023/11/03 02:05:07;;;;;;;2.87;2.37;;;;;;;22.15;63.65;94698.03;5012468;28;20209;-26
2023/11/03 02:07:33;;;;;;;2.60;2.00;;;;;;;22.16;63.55;94691.19;5019263;28;20222;-26
2023/11/03 02:10:00;;;;;;;3.40;2.27;;;;;;;22.16;63.49;94691.19;5017050;28;20206;-35
2023/11/03 02:12:26;;;;;;;2.53;2.33;;;;;;;22.16;63.40;94689.50;5012376;28;20213;-26
2023/11/03 02:14:53;;;;;;;3.27;2.37;;;;;;;22.16;63.72;94698.88;5017376;28;20203;-26
2023/11/03 02:17:20;;;;;;;2.57;2.00;;;;;;;22.15;63.54;94705.72;5013804;28;20236;-26
2023/11/03 02:19:47;;;;;;;2.53;2.27;;;;;;;22.16;63.46;94704.84;5015186;28;20205;-26
2023/11/03 02:22:14;;;;;;;3.10;2.37;;;;;;;22.15;63.43;94692.94;5020417;28;20582;-26
2023/11/03 02:24:41;;;;;;;2.20;2.00;;;;;;;22.15;63.53;94702.31;5015343;28;20653;-26
2023/11/03 02:27:07;;;;;;;2.83;2.13;;;;;;;22.15;63.46;94712.53;5016832;28;20230;-26
2023/11/03 02:29:34;;;;;;;2.37;2.03;;;;;;;22.15;63.87;94713.41;5020692;28;20241;-26
2023/11/03 02:32:01;;;;;;;2.47;2.10;;;;;;;22.15;63.56;94715.09;5018711;28;20240;-26
2023/11/03 02:34:27;;;;;;;2.60;2.27;;;;;;;22.15;63.50;94731.28;5021089;28;20249;-26
2023/11/03 02:36:54;;;;;;;3.03;2.30;;;;;;;22.15;63.70;94733.00;5016481;28;20670;-26
2023/11/03 02:39:21;;;;;;;2.43;2.20;;;;;;;22.15;63.56;94730.44;5019185;28;20202;-28
2023/11/03 02:41:48;;;;;;;2.50;2.30;;;;;;;22.16;63.62;94721.88;5017697;28;20222;-26
2023/11/03 02:44:14;;;;;;;3.10;2.37;;;;;;;22.16;63.54;94704.84;5014924;28;20233;-26
2023/11/03 02:46:44;;;;;;;2.30;2.10;;;;;;;22.16;63.55;94693.75;5020186;28;20695;-28
2023/11/03 02:49:11;;;;;;;3.07;2.17;;;;;;;22.16;63.53;94689.50;5016623;28;20213;-26
2023/11/03 02:51:37;;;;;;;2.50;2.30;;;;;;;22.15;63.45;94681.84;5018212;28;20201;-28
2023/11/03 02:54:04;;;;;;;3.07;2.20;;;;;;;22.13;63.59;94681.03;5016840;28;20202;-26
2023/11/03 02:56:31;;;;;;;2.20;2.00;;;;;;;22.14;63.46;94686.09;5014920;28;20202;-26
2023/11/03 02:58:58;;;;;;;2.60;2.20;;;;;;;22.15;63.64;94692.06;5014975;28;20742;-31
2023/11/03 03:01:28;;;;;;;2.80;2.30;;;;;;;22.15;63.56;94690.38;5013784;28;20751;-27
2023/11/03 03:03:55;;;;;;;2.23;2.03;;;;;;;22.16;63.71;94693.75;5009922;28;20253;-26
2023/11/03 03:06:22;;;;;;;2.40;2.00;;;;;;;22.15;63.59;94692.94;5014630;28;20231;-27
2023/11/03 03:08:49;;;;;;;2.50;2.10;;;;;;;22.15;63.47;94669.91;5019695;28;20222;-27
2023/11/03 03:11:16;;;;;;;2.13;1.93;;;;;;;22.14;63.54;94663.09;5015187;28;20195;-26
2023/11/03 03:13:43;;;;;;;2.40;2.00;;;;;;;22.15;63.48;94657.13;5020948;28;20205;-27
2023/11/03 03:16:10;;;;;;;2.87;2.13;;;;;;;22.08;63.53;94637.63;5016177;28;20289;-26
2023/11/03 03:18:36;;;;;;;2.20;2.00;;;;;;;22.16;63.44;94648.56;5013513;28;20280;-29
2023/11/03 03:21:03;;;;;;;2.47;2.20;;;;;;;22.15;63.56;94641.78;5014320;28;20298;-40
2023/11/03 03:23:30;;;;;;;2.77;2.10;;;;;;;22.16;63.67;94634.94;5013388;28;20195;-26
2023/11/03 03:25:56;;;;;;;2.40;2.07;;;;;;;22.15;63.56;94633.25;5017461;28;20202;-26
2023/11/03 03:28:23;;;;;;;2.50;1.90;;;;;;;22.14;63.55;94632.41;5014042;28;20222;-28
2023/11/03 03:30:50;;;;;;;2.20;2.00;;;;;;;22.15;63.55;94641.78;5018474;28;20198;-26
2023/11/03 03:33:17;;;;;;;3.30;2.20;;;;;;;22.14;63.73;94650.31;5015614;28;20292;-26
2023/11/03 03:35:43;;;;;;;2.17;1.97;;;;;;;22.15;63.80;94646.91;4998562;28;20716;-29
2023/11/03 03:38:10;;;;;;;2.40;2.13;;;;;;;22.15;63.50;94651.16;5016123;28;20250;-27
2023/11/03 03:40:37;;;;;;;3.10;2.23;;;;;;;22.15;63.70;94651.16;5014792;28;20310;-26
2023/11/03 03:43:03;;;;;;;3.20;2.33;;;;;;;22.14;63.79;94644.38;5014640;28;20202;-28
2023/11/03 03:45:30;;;;;;;9.83;2.30;;;;;;;22.16;63.72;94655.38;5013097;28;20194;-27
2023/11/03 03:47:56;;;;;;;2.30;2.10;;;;;;;22.15;63.70;94658.81;5017219;28;20249;-26
2023/11/03 03:50:23;;;;;;;7.23;2.23;;;;;;;22.15;63.55;94651.16;5014565;28;20209;-26
2023/11/03 03:52:50;;;;;;;2.60;2.10;;;;;;;22.15;63.64;94657.13;5013777;28;20554;-28
2023/11/03 03:55:17;;;;;;;3.10;2.20;;;;;;;22.15;63.59;94654.56;5015320;28;20202;-26
2023/11/03 03:57:43;;;;;;;2.13;1.93;;;;;;;22.16;63.65;94663.91;5014388;28;20692;-27
2023/11/03 04:00:10;;;;;;;3.13;2.10;;;;;;;22.16;63.78;94660.50;5020151;28;20198;-28
2023/11/03 04:02:37;;;;;;;7.20;2.37;;;;;;;22.16;64.05;94663.06;5013105;28;20230;-26
2023/11/03 04:05:04;;;;;;;4.40;2.00;;;;;;;22.16;63.77;94661.34;5018164;28;20211;-28
2023/11/03 04:07:32;;;;;;;2.07;1.70;;;;;;;22.16;63.75;94657.94;5018763;28;20281;-27
2023/11/03 04:09:58;;;;;;;7.60;1.90;;;;;;;22.16;63.98;94657.94;5013483;28;20203;-28
2023/11/03 04:12:25;;;;;;;3.03;2.20;;;;;;;22.16;63.61;94657.94;5020033;28;20198;-26
2023/11/03 04:14:52;;;;;;;3.00;2.20;;;;;;;22.15;63.79;94667.34;5013017;28;20203;-26
2023/11/03 04:17:19;;;;;;;2.53;2.20;;;;;;;22.16;63.66;94668.19;5013565;28;20214;-27
2023/11/03 04:19:45;;;;;;;2.90;1.90;;;;;;;22.16;63.78;94663.06;5014264;28;20240;-27
2023/11/03 04:22:12;;;;;;;2.23;1.97;;;;;;;22.14;63.62;94673.31;5013294;28;20245;-26
2023/11/03 04:24:38;;;;;;;2.20;2.00;;;;;;;22.15;63.65;94672.47;5015947;28;20206;-26
2023/11/03 04:27:05;;;;;;;3.97;1.93;;;;;;;22.14;63.58;94663.09;5015409;28;20709;-31
2023/11/03 04:29:32;;;;;;;4.83;1.90;;;;;;;22.14;63.75;94673.31;5020264;28;20194;-26
2023/11/03 04:31:58;;;;;;;3.87;1.93;;;;;;;22.14;63.48;94673.31;5014065;28;20202;-28
2023/11/03 04:34:25;;;;;;;2.27;1.90;;;;;;;22.15;63.43;94676.72;5012124;28;20209;-26
2023/11/03 04:36:52;;;;;;;2.87;2.03;;;;;;;22.14;63.66;94677.63;5012704;28;20202;-29
2023/11/03 04:39:18;;;;;;;3.23;2.20;;;;;;;22.15;63.58;94692.94;5021806;28;20213;-27
2023/11/03 04:41:45;;;;;;;2.07;1.87;;;;;;;22.14;63.58;94675.88;5017086;28;20296;-26
2023/11/03 04:44:12;;;;;;;4.20;2.00;;;;;;;22.16;63.74;94681.81;5012970;28;20198;-32
2023/11/03 04:46:38;;;;;;;2.90;2.13;;;;;;;22.15;63.68;94684.41;5004673;28;20289;-27
2023/11/03 04:49:05;;;;;;;2.70;2.27;;;;;;;22.15;63.71;94686.97;5019038;28;20230;-26
2023/11/03 04:51:32;;;;;;;4.93;2.40;;;;;;;22.15;63.76;94677.59;5015083;28;20641;-31
2023/11/03 04:53:58;;;;;;;2.00;1.70;;;;;;;22.14;63.66;94659.72;5013121;28;20580;-26
2023/11/03 04:56:25;;;;;;;2.13;1.97;;;;;;;22.15;63.58;94649.44;5014923;28;20197;-26
2023/11/03 04:58:52;;;;;;;3.10;2.03;;;;;;;22.14;63.55;94650.31;5016896;28;20241;-26
2023/11/03 05:01:19;;;;;;;3.83;2.10;;;;;;;22.15;63.67;94646.03;5018939;28;20317;-28
2023/11/03 05:03:46;;;;;;;2.07;1.80;;;;;;;22.14;63.56;94652.03;5012459;28;20202;-26
2023/11/03 05:06:12;;;;;;;2.03;1.83;;;;;;;22.14;63.55;94646.91;5012164;28;20202;-28
2023/11/03 05:08:40;;;;;;;2.23;1.97;;;;;;;22.15;63.49;94648.59;5007625;28;20218;-26
2023/11/03 05:11:06;;;;;;;1.70;1.60;;;;;;;22.13;63.53;94658.00;5016335;28;20201;-26
2023/11/03 05:13:33;;;;;;;3.27;2.07;;;;;;;22.14;63.64;94664.81;5014011;28;20213;-29
2023/11/03 05:16:00;;;;;;;3.17;2.00;;;;;;;22.13;63.65;94661.41;5014239;28;20249;-26
2023/11/03 05:18:27;;;;;;;2.10;1.87;;;;;;;22.15;63.49;94675.03;5011748;28;20226;-27
2023/11/03 05:20:54;;;;;;;4.33;2.00;;;;;;;22.15;63.64;94681.84;5011644;28;20237;-28
2023/11/03 05:23:21;;;;;;;1.90;1.70;;;;;;;22.16;63.56;94680.97;5014920;28;20206;-27
2023/11/03 05:25:48;;;;;;;3.23;1.87;;;;;;;22.16;63.57;94678.41;5011898;28;20232;-28
2023/11/03 05:28:14;;;;;;;2.17;1.90;;;;;;;22.15;63.67;94666.50;5013048;28;20226;-26
2023/11/03 05:30:41;;;;;;;2.13;1.80;;;;;;;22.16;63.89;94665.63;5012070;28;20194;-26
2023/11/03 05:33:08;;;;;;;2.73;2.00;;;;;;;22.17;63.58;94667.31;5014480;28;20206;-26
2023/11/03 05:35:35;;;;;;;2.70;2.20;;;;;;;22.16;63.54;94669.03;5014359;28;20210;-30
2023/11/03 05:38:01;;;;;;;2.77;2.10;;;;;;;22.15;63.56;94669.06;5007567;28;20257;-26
2023/11/03 05:40:28;;;;;;;3.07;2.03;;;;;;;22.15;63.39;94667.34;5012070;28;20306;-26
2023/11/03 05:42:55;;;;;;;2.03;1.90;;;;;;;22.16;63.52;94673.28;5016927;28;20309;-26
2023/11/03 05:45:21;;;;;;;2.00;1.80;;;;;;;22.15;63.38;94666.50;5012861;28;20203;-26
2023/11/03 05:47:48;;;;;;;2.17;1.97;;;;;;;22.16;63.54;94666.47;5011443;28;20733;-28
2023/11/03 05:50:14;;;;;;;2.53;1.90;;;;;;;22.16;63.45;94673.28;5012895;28;20592;-30
2023/11/03 05:52:42;;;;;;;2.63;2.03;;;;;;;22.16;63.35;94688.63;5012874;28;20194;-29
2023/11/03 05:55:10;;;;;;;3.20;1.90;;;;;;;22.15;63.51;94703.16;5016415;28;20207;-29
2023/11/03 05:57:36;;;;;;;2.23;2.00;;;;;;;22.15;63.42;94705.72;5004992;28;20222;-26
2023/11/03 06:00:08;;;;;;;2.17;1.93;;;;;;;22.17;63.52;94710.81;5008022;28;20658;-30
2023/11/03 06:02:38;;;;;;;2.17;1.97;;;;;;;22.17;63.51;94714.19;5011542;28;21061;-28
2023/11/03 06:05:06;;;;;;;2.93;2.00;;;;;;;22.17;63.44;94710.81;5013040;28;20206;-36
2023/11/03 06:07:34;;;;;;;2.40;1.90;;;;;;;22.18;63.45;94715.03;5013108;28;20296;-35
2023/11/03 06:10:01;;;;;;;2.10;1.87;;;;;;;22.18;63.44;94717.59;5009625;28;20244;-27
2023/11/03 06:12:28;;;;;;;1.93;1.80;;;;;;;22.17;63.27;94723.59;5012428;28;20681;-26
2023/11/03 06:14:55;;;;;;;2.57;2.03;;;;;;;22.18;63.39;94721.00;5016222;28;20264;-26
2023/11/03 06:17:21;;;;;;;2.07;1.97;;;;;;;22.18;63.43;94707.38;5018189;28;20313;-29
2023/11/03 06:19:48;;;;;;;2.23;1.93;;;;;;;22.17;63.22;94705.69;5016269;28;20202;-34
2023/11/03 06:22:14;;;;;;;2.50;2.03;;;;;;;22.19;63.43;94717.56;5025297;28;20225;-26
2023/11/03 06:24:41;;;;;;;1.90;1.80;;;;;;;22.19;63.42;94706.50;5015373;28;20206;-26
2023/11/03 06:27:08;;;;;;;1.73;1.60;;;;;;;22.20;63.40;94715.88;5018296;28;20198;-26
2023/11/03 06:29:34;;;;;;;2.07;1.83;;;;;;;22.20;63.29;94715.88;5014838;28;20688;-26
2023/11/03 06:32:03;;;;;;;2.03;1.83;;;;;;;22.20;63.37;94720.97;5017856;28;20225;-26
2023/11/03 06:34:29;;;;;;;2.20;1.80;;;;;;;22.19;62.91;94715.00;5023353;28;20194;-27
2023/11/03 06:36:56;;;;;;;2.23;2.03;;;;;;;22.21;62.48;94717.53;5018769;28;20202;-28
2023/11/03 06:39:23;;;;;;;2.40;2.20;;;;;;;22.21;62.32;94731.19;5014714;28;20198;-31
2023/11/03 06:41:49;;;;;;;2.50;2.10;;;;;;;22.21;61.05;94738.00;5020030;28;20221;-28
2023/11/03 06:44:16;;;;;;;5.30;2.70;;;;;;;22.22;60.31;94742.25;5015854;28;20234;-26
2023/11/03 06:46:43;;;;;;;3.53;3.00;;;;;;;22.25;59.88;94750.72;5022216;28;20229;-27
2023/11/03 06:49:10;;;;;;;5.17;3.53;;;;;;;22.25;59.46;94750.72;5018925;28;20233;-26
2023/11/03 06:51:36;;;;;;;6.73;3.27;;;;;;;22.26;60.09;94749.00;5014713;28;20202;-29
2023/11/03 06:54:07;;;;;;;4.30;3.47;;;;;;;22.26;60.09;94754.97;5015057;28;20221;-26
2023/11/03 06:56:33;;;;;;;4.13;3.20;;;;;;;22.28;60.16;94757.50;5018415;28;20206;-29
2023/11/03 06:59:00;;;;;;;5.30;3.47;;;;;;;22.27;58.06;94750.69;5024108;28;20250;-27
2023/11/03 07:01:26;;;;;;;21.13;4.50;;;;;;;22.26;55.49;94754.97;5019951;28;20218;-26
2023/11/03 07:03:53;;;;;;;5.10;3.83;;;;;;;22.27;54.39;94763.47;5013365;28;20203;-26
2023/11/03 07:06:20;;;;;;;5.63;4.43;;;;;;;22.26;53.16;94761.81;5016672;28;20229;-27
2023/11/03 07:08:48;;;;;;;4.87;3.87;;;;;;;22.26;52.49;94775.41;5021930;28;20277;-28
2023/11/03 07:11:14;;;;;;;6.43;4.67;;;;;;;22.25;51.88;94788.25;5017668;28;20628;-26
2023/11/03 07:13:41;;;;;;;4.80;4.33;;;;;;;22.25;51.03;94793.34;5020502;28;20202;-27
2023/11/03 07:16:10;;;;;;;8.60;4.97;;;;;;;22.23;50.32;94795.13;5017842;28;20288;-26
2023/11/03 07:18:36;;;;;;;4.83;4.37;;;;;;;22.22;49.99;94814.72;5019191;28;20226;-26
2023/11/03 07:21:11;;;;;;;6.50;4.23;;;;;;;22.22;50.33;94808.75;5021919;28;20610;-26
2023/11/03 07:23:39;;;;;;;5.53;4.37;;;;;;;22.21;51.76;94813.03;5017390;28;20202;-29
2023/11/03 07:26:05;;;;;;;4.50;3.80;;;;;;;22.21;52.93;94813.03;5022277;28;20202;-26
2023/11/03 07:28:32;;;;;;;4.23;3.83;;;;;;;22.23;53.57;94810.47;5017573;28;20309;-26
2023/11/03 07:30:58;;;;;;;4.47;3.77;;;;;;;22.22;52.97;94799.38;5016434;28;20194;-28
2023/11/03 07:33:25;;;;;;;8.67;4.40;;;;;;;22.22;53.59;94790.84;5017323;28;20202;-27
2023/11/03 07:35:52;;;;;;;4.73;4.03;;;;;;;22.22;54.19;94778.91;5019156;28;20206;-26
2023/11/03 07:38:19;;;;;;;4.23;3.57;;;;;;;22.23;54.64;94772.91;5015815;28;20222;-26
2023/11/03 07:40:48;;;;;;;5.13;3.83;;;;;;;22.24;55.10;94758.41;5019021;28;20206;-26
2023/11/03 07:43:15;;;;;;;4.60;3.33;;;;;;;22.24;55.70;94758.41;5020248;28;20218;-28
2023/11/03 07:45:42;;;;;;;4.50;3.53;;;;;;;22.25;56.15;94762.66;5017118;28;20248;-27
2023/11/03 07:48:08;;;;;;;6.40;3.70;;;;;;;22.23;55.76;94754.19;5022814;28;20700;-26
2023/11/03 07:50:35;;;;;;;4.53;3.40;;;;;;;22.24;55.72;94760.97;5019186;28;20209;-26
2023/11/03 07:53:03;;;;;;;3.90;3.07;;;;;;;22.24;55.97;94769.50;5031471;28;20201;-27
2023/11/03 07:55:30;;;;;;;4.93;3.40;;;;;;;22.24;55.56;94766.94;5018550;28;20204;-39
2023/11/03 07:57:56;;;;;;;8.00;3.67;;;;;;;22.25;56.43;94768.63;5015952;28;20218;-26
2023/11/03 08:00:24;;;;;;;4.90;3.30;;;;;;;22.25;56.55;94760.94;5026111;28;20237;-27
2023/11/03 08:02:50;;;;;;;4.23;3.10;;;;;;;22.26;56.84;94754.97;5015825;28;20229;-27
2023/11/03 08:05:18;;;;;;;3.77;3.30;;;;;;;22.27;56.99;94763.47;5014483;28;20222;-26
2023/11/03 08:07:45;;;;;;;3.60;2.80;;;;;;;22.28;57.21;94777.94;5015505;28;20551;-26
2023/11/03 08:10:12;;;;;;;3.50;3.10;;;;;;;22.28;57.30;94783.06;5014748;28;20260;-27
2023/11/03 08:12:39;;;;;;;3.27;2.90;;;;;;;22.28;57.32;94793.31;5015407;28;20201;-26
2023/11/03 08:15:06;;;;;;;3.83;2.90;;;;;;;22.28;57.44;94794.16;5020984;28;20285;-26
2023/11/03 08:17:43;;;;;;;4.30;2.70;;;;;;;22.29;57.62;94802.69;5016368;28;20225;-27
2023/11/03 08:20:11;;;;;;;3.87;2.93;;;;;;;22.28;57.79;94806.94;5020128;28;20198;-26
2023/11/03 08:22:38;;;;;;;7.33;2.60;;;;;;;22.28;57.88;94808.66;5016121;28;20226;-26
2023/11/03 08:25:07;;;;;;;4.40;2.70;;;;;;;22.28;57.90;94821.44;5017262;28;20238;-31
2023/11/03 08:27:34;;;;;;;5.00;2.97;;;;;;;22.28;57.94;94819.75;5015861;28;20305;-28
2023/11/03 08:30:03;;;;;;;3.30;2.60;;;;;;;22.28;57.98;94824.84;5012438;28;20257;-29
2023/11/03 08:32:30;;;;;;;2.93;2.60;;;;;;;22.29;58.07;94823.16;5023700;28;20202;-27
2023/11/03 08:34:57;;;;;;;3.33;2.80;;;;;;;22.30;58.33;94827.38;5014310;28;20297;-30
2023/11/03 08:37:24;;;;;;;3.70;2.80;;;;;;;22.29;58.22;94826.53;5018141;28;20222;-26
2023/11/03 08:39:51;;;;;;;2.57;2.37;;;;;;;22.32;58.45;94833.34;5019509;28;20229;-26
2023/11/03 08:42:18;;;;;;;4.70;2.33;;;;;;;22.31;58.60;94835.03;5016751;28;20249;-26
2023/11/03 08:44:44;;;;;;;2.50;2.30;;;;;;;22.32;58.31;94848.69;5017392;28;20197;-26
2023/11/03 08:47:11;;;;;;;2.50;2.13;;;;;;;22.32;58.54;94841.00;4994579;28;20218;-26
2023/11/03 08:49:38;;;;;;;2.43;2.17;;;;;;;22.32;58.45;94846.13;5016482;28;20201;-28
2023/11/03 08:52:04;;;;;;;2.90;2.40;;;;;;;22.30;58.55;94838.47;5019178;28;20237;-26
2023/11/03 08:54:33;;;;;;;4.73;2.43;;;;;;;22.31;58.62;94842.72;5013357;28;20238;-26
2023/11/03 08:56:59;;;;;;;2.87;2.47;;;;;;;22.32;58.58;94846.13;5011615;28;20206;-26
2023/11/03 08:59:28;;;;;;;3.57;2.40;;;;;;;22.32;58.68;94849.50;5015115;28;20226;-28
2023/11/03 09:01:55;;;;;;;3.90;2.17;;;;;;;22.32;58.59;94854.63;5015990;28;20201;-27
2023/11/03 09:04:23;;;;;;;2.60;2.20;;;;;;;22.33;58.73;94863.16;5018837;28;20207;-26
2023/11/03 09:06:49;;;;;;;2.90;2.10;;;;;;;22.32;58.74;94867.41;5016032;28;20583;-26
2023/11/03 09:09:17;;;;;;;2.57;2.23;;;;;;;22.33;58.82;94875.94;5017846;28;20237;-26
2023/11/03 09:11:46;;;;;;;2.73;2.30;;;;;;;22.33;58.94;94881.06;5015520;28;20224;-26
2023/11/03 09:14:12;;;;;;;4.27;2.37;;;;;;;22.34;58.88;94882.75;5018015;28;20210;-28
2023/11/03 09:16:39;;;;;;;3.10;2.30;;;;;;;22.34;59.01;94892.97;5019313;28;20205;-27
2023/11/03 09:19:06;;;;;;;3.23;2.20;;;;;;;22.35;59.05;94907.47;5016904;28;20229;-30
2023/11/03 09:21:35;;;;;;;2.40;2.20;;;;;;;22.35;58.93;94903.19;5020082;28;20202;-26
2023/11/03 09:24:02;;;;;;;2.53;2.13;;;;;;;22.34;59.00;94911.75;5016418;28;20229;-26
2023/11/03 09:26:29;;;;;;;2.83;2.30;;;;;;;22.33;59.03;94910.06;5012187;28;20202;-26
2023/11/03 09:28:56;;;;;;;2.97;2.43;;;;;;;22.34;59.17;94916.00;5015650;28;20231;-26
2023/11/03 09:31:24;;;;;;;3.20;2.33;;;;;;;22.33;59.08;94910.06;5008735;28;20209;-26
2023/11/03 09:33:51;;;;;;;3.30;2.53;;;;;;;22.33;59.33;94912.63;5022204;28;20201;-26
2023/11/03 09:36:17;;;;;;;2.20;2.00;;;;;;;22.33;59.21;94914.31;5012614;28;20260;-27
2023/11/03 09:38:44;;;;;;;2.80;2.50;;;;;;;22.33;59.00;94909.22;5015042;28;20722;-26
2023/11/03 09:41:12;;;;;;;2.07;1.90;;;;;;;22.31;59.17;94893.88;5019271;28;20197;-26
2023/11/03 09:43:41;;;;;;;5.07;2.40;;;;;;;22.33;59.21;94898.97;5017339;28;20222;-26
2023/11/03 09:46:08;;;;;;;3.30;1.90;;;;;;;22.32;59.27;94890.44;5018059;28;20224;-28
2023/11/03 09:48:35;;;;;;;1.90;1.70;;;;;;;22.30;59.18;94894.75;5012991;28;20214;-26
2023/11/03 09:51:02;;;;;;;2.37;2.10;;;;;;;22.33;59.32;94896.41;5016974;28;20230;-30
2023/11/03 09:53:29;;;;;;;2.23;2.03;;;;;;;22.33;59.23;94901.53;5017671;28;20194;-26
2023/11/03 09:55:56;;;;;;;2.73;1.77;;;;;;;22.33;59.36;94906.66;5014850;28;20202;-26
2023/11/03 09:58:23;;;;;;;2.30;2.10;;;;;;;22.32;59.91;94898.13;5010619;28;20226;-28
2023/11/03 10:00:49;;;;;;;2.30;2.10;;;;;;;22.32;59.44;94905.78;4994522;28;20199;-27
2023/11/03 10:03:17;;;;;;;2.10;1.90;;;;;;;22.32;59.52;94894.75;5009885;28;20217;-26
2023/11/03 10:05:44;;;;;;;2.60;1.93;;;;;;;22.33;59.40;94886.19;5013596;28;20248;-31
2023/11/03 10:08:12;;;;;;;2.37;1.90;;;;;;;22.32;59.36;94889.63;5013564;28;20721;-28
2023/11/03 10:10:39;;;;;;;2.57;1.80;;;;;;;22.32;59.55;94884.50;5012991;28;20199;-30
2023/11/03 10:13:09;;;;;;;3.17;2.10;;;;;;;22.32;59.53;94884.50;5014008;28;20202;-26
2023/11/03 10:15:37;;;;;;;2.20;2.00;;;;;;;22.32;59.52;94876.81;5012402;28;20232;-26
2023/11/03 10:18:04;;;;;;;2.33;2.07;;;;;;;22.32;59.50;94884.50;5013472;28;20225;-26
2023/11/03 10:20:30;;;;;;;2.97;2.17;;;;;;;22.32;59.49;94877.66;5018122;28;20241;-26
2023/11/03 10:22:57;;;;;;;2.87;2.00;;;;;;;22.33;59.65;94883.63;5010745;28;20305;-26
2023/11/03 10:25:26;;;;;;;2.50;2.00;;;;;;;22.33;59.63;94878.50;5015535;28;20193;-29
2023/11/03 10:27:56;;;;;;;3.50;2.10;;;;;;;22.34;59.48;94875.06;5012850;28;20222;-26
2023/11/03 10:30:25;;;;;;;2.53;1.87;;;;;;;22.34;59.65;94865.69;5015620;28;20290;-26
2023/11/03 10:32:52;;;;;;;1.77;1.67;;;;;;;22.33;59.66;94866.56;5013846;28;20191;-29
2023/11/03 10:35:19;;;;;;;2.10;1.87;;;;;;;22.34;59.59;94869.94;5012702;28;20199;-26
2023/11/03 10:37:48;;;;;;;3.57;1.80;;;;;;;22.32;59.84;94861.47;5011460;28;20272;-26
2023/11/03 10:40:15;;;;;;;2.10;1.90;;;;;;;22.31;59.83;94857.22;5012171;28;20790;-27
2023/11/03 10:42:49;;;;;;;1.87;1.77;;;;;;;22.28;59.75;94853.00;5009943;28;20214;-29
2023/11/03 10:45:17;;;;;;;2.50;1.93;;;;;;;22.32;59.73;94851.25;5012985;28;20302;-26
2023/11/03 10:47:50;;;;;;;2.60;1.97;;;;;;;22.32;59.75;94846.13;5013599;28;20257;-26
2023/11/03 10:50:18;;;;;;;3.03;1.97;;;;;;;22.32;59.71;94848.69;5009745;28;20225;-26
2023/11/03 10:52:49;;;;;;;3.97;2.30;;;;;;;22.29;59.75;94846.19;4992177;28;20230;-28
2023/11/03 10:55:25;;;;;;;1.70;1.60;;;;;;;22.28;59.84;94845.31;5009102;28;20573;-29
2023/11/03 10:57:54;;;;;;;2.13;1.97;;;;;;;22.30;59.86;94848.72;5001056;28;20224;-26
2023/11/03 11:00:28;;;;;;;2.07;1.87;;;;;;;22.29;59.84;94847.00;5024087;28;20205;-28
2023/11/03 11:03:09;;;;;;;2.53;1.93;;;;;;;22.30;59.77;94846.16;5004720;28;20617;-28
2023/11/03 11:05:57;;;;;;;2.20;1.83;;;;;;;22.32;59.83;94851.25;5017092;28;20642;-26
2023/11/03 11:08:26;;;;;;;2.00;1.90;;;;;;;22.25;60.01;94831.72;5018094;28;20626;-26
2023/11/03 11:10:52;;;;;;;1.97;1.77;;;;;;;22.33;59.82;94845.25;4999189;28;20206;-28
2023/11/03 11:13:20;;;;;;;1.97;1.80;;;;;;;22.33;59.85;94842.69;5025996;28;20621;-26
2023/11/03 11:15:56;;;;;;;2.20;1.83;;;;;;;22.32;59.92;94844.38;5015903;28;20198;-35
2023/11/03 11:18:27;;;;;;;1.80;1.50;;;;;;;22.32;59.77;94846.94;5015528;28;20272;-26
2023/11/03 11:20:55;;;;;;;2.33;1.80;;;;;;;22.32;59.88;94851.25;5020326;28;20602;-27
2023/11/03 11:23:22;;;;;;;1.83;1.73;;;;;;;22.32;59.84;94848.69;5023375;28;20272;-26
2023/11/03 11:25:52;;;;;;;2.60;2.03;;;;;;;22.32;60.07;94851.25;5012809;28;20280;-31
2023/11/03 11:28:35;;;;;;;3.47;1.80;;;;;;;22.31;60.27;94847.81;5015498;28;20244;-27
2023/11/03 11:31:23;;;;;;;2.57;1.97;;;;;;;22.32;60.27;94846.94;5016523;28;20198;-28
2023/11/03 11:34:04;;;;;;;1.70;1.60;;;;;;;22.31;60.16;94854.66;5004918;28;20277;-28
2023/11/03 11:36:32;;;;;;;2.40;1.80;;;;;;;22.30;60.10;94848.72;5012329;28;20233;-28